sensor_id;sensor_type;location;lat;lon;timestamp;P1;durP1;ratioP1;P2;durP2;ratioP2
22289;SDS011;11313;50.116;8.424;2023-09-19T00:01:05;2.83;;;1.30;;
22289;SDS011;11313;50.116;8.424;2023-09-19T00:03:33;1.42;;;1.00;;
22289;SDS011;11313;50.116;8.424;2023-09-19T00:06:00;1.60;;;0.93;;
22289;SDS011;11313;50.116;8.424;2023-09-19T00:08:26;1.92;;;0.90;;
22289;SDS011;11313;50.116;8.424;2023-09-19T00:10:52;6.03;;;1.23;;
22289;SDS011;11313;50.116;8.424;2023-09-19T00:13:19;2.17;;;1.02;;
22289;SDS011;11313;50.116;8.424;2023-09-19T00:15:46;1.98;;;1.05;;
22289;SDS011;11313;50.116;8.424;2023-09-19T00:18:16;1.90;;;1.05;;
22289;SDS011;11313;50.116;8.424;2023-09-19T00:20:46;1.90;;;1.00;;
22289;SDS011;11313;50.116;8.424;2023-09-19T00:23:12;2.75;;;1.75;;
22289;SDS011;11313;50.116;8.424;2023-09-19T00:25:38;2.42;;;1.00;;
22289;SDS011;11313;50.116;8.424;2023-09-19T00:28:05;3.88;;;1.15;;
22289;SDS011;11313;50.116;8.424;2023-09-19T00:30:32;1.40;;;1.00;;
22289;SDS011;11313;50.116;8.424;2023-09-19T00:32:58;2.47;;;1.08;;
22289;SDS011;11313;50.116;8.424;2023-09-19T00:35:24;1.45;;;1.00;;
22289;SDS011;11313;50.116;8.424;2023-09-19T00:37:50;1.58;;;1.00;;
22289;SDS011;11313;50.116;8.424;2023-09-19T00:40:15;4.45;;;1.17;;
22289;SDS011;11313;50.116;8.424;2023-09-19T00:42:45;3.35;;;1.17;;
22289;SDS011;11313;50.116;8.424;2023-09-19T00:45:12;1.83;;;1.00;;
22289;SDS011;11313;50.116;8.424;2023-09-19T00:47:39;1.65;;;1.05;;
22289;SDS011;11313;50.116;8.424;2023-09-19T00:50:09;1.80;;;1.10;;
22289;SDS011;11313;50.116;8.424;2023-09-19T00:52:36;1.42;;;0.90;;
22289;SDS011;11313;50.116;8.424;2023-09-19T00:55:04;2.22;;;0.88;;
22289;SDS011;11313;50.116;8.424;2023-09-19T00:57:31;3.72;;;1.23;;
22289;SDS011;11313;50.116;8.424;2023-09-19T00:59:58;3.90;;;1.00;;
22289;SDS011;11313;50.116;8.424;2023-09-19T01:02:25;4.95;;;1.20;;
22289;SDS011;11313;50.116;8.424;2023-09-19T01:04:53;2.47;;;0.98;;
22289;SDS011;11313;50.116;8.424;2023-09-19T01:07:20;1.40;;;1.00;;
22289;SDS011;11313;50.116;8.424;2023-09-19T01:09:47;2.50;;;1.00;;
22289;SDS011;11313;50.116;8.424;2023-09-19T01:12:13;1.55;;;0.90;;
22289;SDS011;11313;50.116;8.424;2023-09-19T01:14:46;2.63;;;1.15;;
22289;SDS011;11313;50.116;8.424;2023-09-19T01:20:02;2.33;;;1.05;;
22289;SDS011;11313;50.116;8.424;2023-09-19T01:31:01;1.95;;;0.90;;
22289;SDS011;11313;50.116;8.424;2023-09-19T01:33:28;2.08;;;1.02;;
22289;SDS011;11313;50.116;8.424;2023-09-19T01:36:16;3.42;;;0.90;;
22289;SDS011;11313;50.116;8.424;2023-09-19T01:38:41;2.60;;;0.90;;
22289;SDS011;11313;50.116;8.424;2023-09-19T01:41:08;1.65;;;1.10;;
22289;SDS011;11313;50.116;8.424;2023-09-19T01:43:38;5.20;;;1.30;;
22289;SDS011;11313;50.116;8.424;2023-09-19T01:55:01;1.95;;;0.90;;
22289;SDS011;11313;50.116;8.424;2023-09-19T01:57:33;1.58;;;1.13;;
22289;SDS011;11313;50.116;8.424;2023-09-19T02:00:09;2.20;;;0.90;;
22289;SDS011;11313;50.116;8.424;2023-09-19T02:02:40;2.47;;;1.10;;
22289;SDS011;11313;50.116;8.424;2023-09-19T02:05:10;2.53;;;1.02;;
22289;SDS011;11313;50.116;8.424;2023-09-19T02:07:36;1.65;;;1.10;;
22289;SDS011;11313;50.116;8.424;2023-09-19T02:10:04;1.63;;;0.90;;
22289;SDS011;11313;50.116;8.424;2023-09-19T02:12:32;2.40;;;1.17;;
22289;SDS011;11313;50.116;8.424;2023-09-19T02:14:58;1.90;;;1.05;;
22289;SDS011;11313;50.116;8.424;2023-09-19T02:17:24;2.58;;;1.00;;
22289;SDS011;11313;50.116;8.424;2023-09-19T02:19:53;2.00;;;1.00;;
22289;SDS011;11313;50.116;8.424;2023-09-19T02:22:19;2.08;;;1.20;;
22289;SDS011;11313;50.116;8.424;2023-09-19T02:24:45;3.13;;;0.85;;
22289;SDS011;11313;50.116;8.424;2023-09-19T02:27:13;1.85;;;0.90;;
22289;SDS011;11313;50.116;8.424;2023-09-19T02:29:40;1.92;;;1.00;;
22289;SDS011;11313;50.116;8.424;2023-09-19T02:32:06;1.80;;;0.93;;
22289;SDS011;11313;50.116;8.424;2023-09-19T02:34:32;3.38;;;1.05;;
22289;SDS011;11313;50.116;8.424;2023-09-19T02:37:01;1.98;;;1.23;;
22289;SDS011;11313;50.116;8.424;2023-09-19T02:39:38;1.20;;;1.00;;
22289;SDS011;11313;50.116;8.424;2023-09-19T02:42:04;3.53;;;1.00;;
22289;SDS011;11313;50.116;8.424;2023-09-19T02:44:29;2.03;;;1.08;;
22289;SDS011;11313;50.116;8.424;2023-09-19T02:46:55;1.83;;;1.00;;
22289;SDS011;11313;50.116;8.424;2023-09-19T02:49:22;1.35;;;1.20;;
22289;SDS011;11313;50.116;8.424;2023-09-19T02:51:48;1.40;;;0.90;;
22289;SDS011;11313;50.116;8.424;2023-09-19T02:54:13;1.52;;;0.90;;
22289;SDS011;11313;50.116;8.424;2023-09-19T02:56:40;2.10;;;1.20;;
22289;SDS011;11313;50.116;8.424;2023-09-19T02:59:06;1.80;;;1.00;;
22289;SDS011;11313;50.116;8.424;2023-09-19T03:01:32;4.32;;;1.08;;
22289;SDS011;11313;50.116;8.424;2023-09-19T03:03:58;2.15;;;1.00;;
22289;SDS011;11313;50.116;8.424;2023-09-19T03:06:24;1.95;;;0.90;;
22289;SDS011;11313;50.116;8.424;2023-09-19T03:08:49;1.40;;;1.00;;
22289;SDS011;11313;50.116;8.424;2023-09-19T03:11:16;1.75;;;1.15;;
22289;SDS011;11313;50.116;8.424;2023-09-19T03:13:46;1.23;;;0.90;;
22289;SDS011;11313;50.116;8.424;2023-09-19T03:16:15;1.57;;;1.10;;
22289;SDS011;11313;50.116;8.424;2023-09-19T03:18:41;1.33;;;0.85;;
22289;SDS011;11313;50.116;8.424;2023-09-19T03:21:07;1.33;;;0.88;;
22289;SDS011;11313;50.116;8.424;2023-09-19T03:23:32;2.47;;;0.90;;
22289;SDS011;11313;50.116;8.424;2023-09-19T03:25:58;2.08;;;1.05;;
22289;SDS011;11313;50.116;8.424;2023-09-19T03:28:24;1.05;;;0.80;;
22289;SDS011;11313;50.116;8.424;2023-09-19T03:31:02;1.70;;;1.10;;
22289;SDS011;11313;50.116;8.424;2023-09-19T03:33:29;1.40;;;0.90;;
22289;SDS011;11313;50.116;8.424;2023-09-19T03:35:58;1.35;;;0.95;;
22289;SDS011;11313;50.116;8.424;2023-09-19T03:38:25;1.08;;;0.80;;
22289;SDS011;11313;50.116;8.424;2023-09-19T03:40:53;1.25;;;0.93;;
22289;SDS011;11313;50.116;8.424;2023-09-19T03:43:18;1.20;;;0.90;;
22289;SDS011;11313;50.116;8.424;2023-09-19T03:45:44;2.95;;;1.15;;
22289;SDS011;11313;50.116;8.424;2023-09-19T03:48:11;1.58;;;1.02;;
22289;SDS011;11313;50.116;8.424;2023-09-19T03:50:37;1.00;;;0.80;;
22289;SDS011;11313;50.116;8.424;2023-09-19T03:53:04;1.77;;;0.98;;
22289;SDS011;11313;50.116;8.424;2023-09-19T03:55:30;1.00;;;0.85;;
22289;SDS011;11313;50.116;8.424;2023-09-19T03:57:55;1.88;;;0.85;;
22289;SDS011;11313;50.116;8.424;2023-09-19T04:00:21;1.45;;;1.10;;
22289;SDS011;11313;50.116;8.424;2023-09-19T04:02:49;1.42;;;1.00;;
22289;SDS011;11313;50.116;8.424;2023-09-19T04:05:16;1.75;;;0.85;;
22289;SDS011;11313;50.116;8.424;2023-09-19T04:07:42;1.63;;;0.80;;
22289;SDS011;11313;50.116;8.424;2023-09-19T04:10:08;1.75;;;1.02;;
22289;SDS011;11313;50.116;8.424;2023-09-19T04:12:36;2.08;;;0.88;;
22289;SDS011;11313;50.116;8.424;2023-09-19T04:15:02;1.98;;;0.93;;
22289;SDS011;11313;50.116;8.424;2023-09-19T04:17:28;1.00;;;0.73;;
22289;SDS011;11313;50.116;8.424;2023-09-19T04:19:53;1.13;;;0.80;;
22289;SDS011;11313;50.116;8.424;2023-09-19T04:22:19;2.38;;;1.10;;
22289;SDS011;11313;50.116;8.424;2023-09-19T04:24:44;1.33;;;0.90;;
22289;SDS011;11313;50.116;8.424;2023-09-19T04:27:10;1.27;;;0.88;;
22289;SDS011;11313;50.116;8.424;2023-09-19T04:29:39;1.40;;;1.10;;
22289;SDS011;11313;50.116;8.424;2023-09-19T04:32:06;1.00;;;0.80;;
22289;SDS011;11313;50.116;8.424;2023-09-19T04:34:32;2.33;;;0.90;;
22289;SDS011;11313;50.116;8.424;2023-09-19T04:36:59;1.17;;;1.08;;
22289;SDS011;11313;50.116;8.424;2023-09-19T04:39:25;1.35;;;0.88;;
22289;SDS011;11313;50.116;8.424;2023-09-19T04:41:51;1.10;;;0.90;;
22289;SDS011;11313;50.116;8.424;2023-09-19T04:44:17;2.17;;;0.90;;
22289;SDS011;11313;50.116;8.424;2023-09-19T04:46:43;0.70;;;0.60;;
22289;SDS011;11313;50.116;8.424;2023-09-19T04:49:09;0.93;;;0.73;;
22289;SDS011;11313;50.116;8.424;2023-09-19T04:51:34;2.05;;;0.80;;
22289;SDS011;11313;50.116;8.424;2023-09-19T04:54:01;1.05;;;0.80;;
22289;SDS011;11313;50.116;8.424;2023-09-19T04:56:27;0.93;;;0.90;;
22289;SDS011;11313;50.116;8.424;2023-09-19T04:58:57;0.80;;;0.80;;
22289;SDS011;11313;50.116;8.424;2023-09-19T05:01:23;1.42;;;1.15;;
22289;SDS011;11313;50.116;8.424;2023-09-19T05:03:49;1.20;;;0.80;;
22289;SDS011;11313;50.116;8.424;2023-09-19T05:06:17;1.85;;;1.00;;
22289;SDS011;11313;50.116;8.424;2023-09-19T05:08:46;1.80;;;0.80;;
22289;SDS011;11313;50.116;8.424;2023-09-19T05:11:18;1.13;;;0.82;;
22289;SDS011;11313;50.116;8.424;2023-09-19T05:13:46;1.88;;;0.88;;
22289;SDS011;11313;50.116;8.424;2023-09-19T05:16:12;0.85;;;0.82;;
22289;SDS011;11313;50.116;8.424;2023-09-19T05:18:37;2.38;;;0.90;;
22289;SDS011;11313;50.116;8.424;2023-09-19T05:21:03;1.42;;;0.90;;
22289;SDS011;11313;50.116;8.424;2023-09-19T05:23:28;1.45;;;0.85;;
22289;SDS011;11313;50.116;8.424;2023-09-19T05:25:54;1.42;;;1.00;;
22289;SDS011;11313;50.116;8.424;2023-09-19T05:28:21;1.20;;;0.80;;
22289;SDS011;11313;50.116;8.424;2023-09-19T05:30:47;1.85;;;0.85;;
22289;SDS011;11313;50.116;8.424;2023-09-19T05:33:13;4.15;;;1.20;;
22289;SDS011;11313;50.116;8.424;2023-09-19T05:35:39;3.10;;;1.30;;
22289;SDS011;11313;50.116;8.424;2023-09-19T05:38:06;4.95;;;1.20;;
22289;SDS011;11313;50.116;8.424;2023-09-19T05:40:34;3.80;;;1.45;;
22289;SDS011;11313;50.116;8.424;2023-09-19T05:43:00;3.22;;;1.00;;
22289;SDS011;11313;50.116;8.424;2023-09-19T05:45:26;3.97;;;1.25;;
22289;SDS011;11313;50.116;8.424;2023-09-19T05:47:52;2.85;;;1.10;;
22289;SDS011;11313;50.116;8.424;2023-09-19T05:50:29;3.63;;;1.10;;
22289;SDS011;11313;50.116;8.424;2023-09-19T05:52:57;4.68;;;1.33;;
22289;SDS011;11313;50.116;8.424;2023-09-19T05:55:23;3.38;;;1.25;;
22289;SDS011;11313;50.116;8.424;2023-09-19T05:57:51;6.78;;;1.30;;
22289;SDS011;11313;50.116;8.424;2023-09-19T06:00:21;6.00;;;1.52;;
22289;SDS011;11313;50.116;8.424;2023-09-19T06:02:54;4.47;;;1.70;;
22289;SDS011;11313;50.116;8.424;2023-09-19T06:05:21;6.13;;;1.85;;
22289;SDS011;11313;50.116;8.424;2023-09-19T06:07:47;5.90;;;2.15;;
22289;SDS011;11313;50.116;8.424;2023-09-19T06:10:13;6.40;;;2.60;;
22289;SDS011;11313;50.116;8.424;2023-09-19T06:12:39;6.53;;;2.63;;
22289;SDS011;11313;50.116;8.424;2023-09-19T06:15:08;6.30;;;2.70;;
22289;SDS011;11313;50.116;8.424;2023-09-19T06:17:37;6.97;;;2.70;;
22289;SDS011;11313;50.116;8.424;2023-09-19T06:20:06;6.45;;;2.47;;
22289;SDS011;11313;50.116;8.424;2023-09-19T06:22:39;7.00;;;2.65;;
22289;SDS011;11313;50.116;8.424;2023-09-19T06:25:12;7.15;;;2.67;;
22289;SDS011;11313;50.116;8.424;2023-09-19T06:27:45;8.13;;;2.60;;
22289;SDS011;11313;50.116;8.424;2023-09-19T06:30:11;4.55;;;2.05;;
22289;SDS011;11313;50.116;8.424;2023-09-19T06:32:38;7.07;;;2.53;;
22289;SDS011;11313;50.116;8.424;2023-09-19T06:35:05;7.75;;;2.78;;
22289;SDS011;11313;50.116;8.424;2023-09-19T06:37:35;9.55;;;2.42;;
22289;SDS011;11313;50.116;8.424;2023-09-19T06:40:01;7.32;;;2.55;;
22289;SDS011;11313;50.116;8.424;2023-09-19T06:42:28;5.97;;;2.30;;
22289;SDS011;11313;50.116;8.424;2023-09-19T06:44:53;6.80;;;2.58;;
22289;SDS011;11313;50.116;8.424;2023-09-19T06:47:19;5.78;;;2.80;;
22289;SDS011;11313;50.116;8.424;2023-09-19T06:49:45;5.05;;;2.28;;
22289;SDS011;11313;50.116;8.424;2023-09-19T06:52:10;4.47;;;2.17;;
22289;SDS011;11313;50.116;8.424;2023-09-19T06:54:36;8.75;;;2.60;;
22289;SDS011;11313;50.116;8.424;2023-09-19T06:57:02;6.88;;;2.28;;
22289;SDS011;11313;50.116;8.424;2023-09-19T06:59:28;7.00;;;2.63;;
22289;SDS011;11313;50.116;8.424;2023-09-19T07:01:53;7.88;;;2.65;;
22289;SDS011;11313;50.116;8.424;2023-09-19T07:04:19;4.13;;;2.00;;
22289;SDS011;11313;50.116;8.424;2023-09-19T07:06:51;5.80;;;2.10;;
22289;SDS011;11313;50.116;8.424;2023-09-19T07:09:17;7.32;;;2.50;;
22289;SDS011;11313;50.116;8.424;2023-09-19T07:11:47;4.40;;;2.33;;
22289;SDS011;11313;50.116;8.424;2023-09-19T07:14:15;4.22;;;2.20;;
22289;SDS011;11313;50.116;8.424;2023-09-19T07:16:41;6.53;;;2.45;;
22289;SDS011;11313;50.116;8.424;2023-09-19T07:19:09;3.95;;;2.33;;
22289;SDS011;11313;50.116;8.424;2023-09-19T07:21:35;5.55;;;2.55;;
22289;SDS011;11313;50.116;8.424;2023-09-19T07:24:00;6.00;;;2.08;;
22289;SDS011;11313;50.116;8.424;2023-09-19T07:26:27;4.72;;;2.00;;
22289;SDS011;11313;50.116;8.424;2023-09-19T07:28:53;5.28;;;2.20;;
22289;SDS011;11313;50.116;8.424;2023-09-19T07:31:19;5.30;;;2.60;;
22289;SDS011;11313;50.116;8.424;2023-09-19T07:33:44;4.47;;;2.50;;
22289;SDS011;11313;50.116;8.424;2023-09-19T07:36:10;5.38;;;2.28;;
22289;SDS011;11313;50.116;8.424;2023-09-19T07:38:38;7.88;;;2.40;;
22289;SDS011;11313;50.116;8.424;2023-09-19T07:41:04;3.38;;;2.08;;
22289;SDS011;11313;50.116;8.424;2023-09-19T07:43:30;6.35;;;2.22;;
22289;SDS011;11313;50.116;8.424;2023-09-19T07:45:56;4.28;;;2.40;;
22289;SDS011;11313;50.116;8.424;2023-09-19T07:48:22;4.18;;;2.30;;
22289;SDS011;11313;50.116;8.424;2023-09-19T07:50:49;4.72;;;2.38;;
22289;SDS011;11313;50.116;8.424;2023-09-19T07:53:14;3.33;;;1.98;;
22289;SDS011;11313;50.116;8.424;2023-09-19T07:55:42;5.97;;;2.13;;
22289;SDS011;11313;50.116;8.424;2023-09-19T07:58:08;6.00;;;2.20;;
22289;SDS011;11313;50.116;8.424;2023-09-19T08:00:34;4.57;;;2.00;;
22289;SDS011;11313;50.116;8.424;2023-09-19T08:03:00;3.65;;;2.00;;
22289;SDS011;11313;50.116;8.424;2023-09-19T08:05:26;3.67;;;2.08;;
22289;SDS011;11313;50.116;8.424;2023-09-19T08:07:51;3.92;;;2.17;;
22289;SDS011;11313;50.116;8.424;2023-09-19T08:10:21;3.73;;;2.00;;
22289;SDS011;11313;50.116;8.424;2023-09-19T08:12:47;3.72;;;2.30;;
22289;SDS011;11313;50.116;8.424;2023-09-19T08:15:17;4.15;;;2.08;;
22289;SDS011;11313;50.116;8.424;2023-09-19T08:17:44;4.18;;;2.20;;
22289;SDS011;11313;50.116;8.424;2023-09-19T08:20:10;3.97;;;1.95;;
22289;SDS011;11313;50.116;8.424;2023-09-19T08:22:51;3.38;;;2.00;;
22289;SDS011;11313;50.116;8.424;2023-09-19T08:25:21;4.63;;;2.13;;
22289;SDS011;11313;50.116;8.424;2023-09-19T08:27:48;4.68;;;2.50;;
22289;SDS011;11313;50.116;8.424;2023-09-19T08:30:15;4.22;;;2.47;;
22289;SDS011;11313;50.116;8.424;2023-09-19T08:32:48;2.85;;;1.88;;
22289;SDS011;11313;50.116;8.424;2023-09-19T08:35:24;3.80;;;1.83;;
22289;SDS011;11313;50.116;8.424;2023-09-19T08:37:49;3.38;;;2.00;;
22289;SDS011;11313;50.116;8.424;2023-09-19T08:40:17;2.83;;;1.90;;
22289;SDS011;11313;50.116;8.424;2023-09-19T08:42:53;4.22;;;2.00;;
22289;SDS011;11313;50.116;8.424;2023-09-19T08:45:21;2.92;;;2.00;;
22289;SDS011;11313;50.116;8.424;2023-09-19T08:50:28;3.70;;;2.00;;
22289;SDS011;11313;50.116;8.424;2023-09-19T08:53:00;3.87;;;1.67;;
22289;SDS011;11313;50.116;8.424;2023-09-19T08:55:29;3.30;;;1.90;;
22289;SDS011;11313;50.116;8.424;2023-09-19T08:58:00;3.10;;;2.03;;
22289;SDS011;11313;50.116;8.424;2023-09-19T09:00:29;3.47;;;1.80;;
22289;SDS011;11313;50.116;8.424;2023-09-19T09:02:56;4.72;;;1.83;;
22289;SDS011;11313;50.116;8.424;2023-09-19T09:05:23;3.47;;;2.00;;
22289;SDS011;11313;50.116;8.424;2023-09-19T09:07:49;3.63;;;1.83;;
22289;SDS011;11313;50.116;8.424;2023-09-19T09:10:16;2.88;;;1.95;;
22289;SDS011;11313;50.116;8.424;2023-09-19T09:12:43;4.57;;;2.20;;
22289;SDS011;11313;50.116;8.424;2023-09-19T09:15:09;3.00;;;1.63;;
22289;SDS011;11313;50.116;8.424;2023-09-19T09:17:36;4.35;;;1.98;;
22289;SDS011;11313;50.116;8.424;2023-09-19T09:20:02;3.17;;;1.98;;
22289;SDS011;11313;50.116;8.424;2023-09-19T09:22:33;5.10;;;2.00;;
22289;SDS011;11313;50.116;8.424;2023-09-19T09:24:58;5.43;;;2.28;;
22289;SDS011;11313;50.116;8.424;2023-09-19T09:27:26;3.45;;;1.95;;
22289;SDS011;11313;50.116;8.424;2023-09-19T09:29:52;2.83;;;1.88;;
22289;SDS011;11313;50.116;8.424;2023-09-19T09:32:24;2.58;;;1.80;;
22289;SDS011;11313;50.116;8.424;2023-09-19T09:34:57;3.35;;;1.90;;
22289;SDS011;11313;50.116;8.424;2023-09-19T09:37:23;2.85;;;1.95;;
22289;SDS011;11313;50.116;8.424;2023-09-19T09:39:58;4.03;;;2.20;;
22289;SDS011;11313;50.116;8.424;2023-09-19T09:42:44;2.95;;;1.77;;
22289;SDS011;11313;50.116;8.424;2023-09-19T09:45:12;4.38;;;1.60;;
22289;SDS011;11313;50.116;8.424;2023-09-19T09:48:02;3.33;;;1.75;;
22289;SDS011;11313;50.116;8.424;2023-09-19T09:50:29;2.35;;;1.65;;
22289;SDS011;11313;50.116;8.424;2023-09-19T09:53:26;3.17;;;1.70;;
22289;SDS011;11313;50.116;8.424;2023-09-19T09:58:30;2.88;;;1.77;;
22289;SDS011;11313;50.116;8.424;2023-09-19T10:00:57;2.92;;;1.70;;
22289;SDS011;11313;50.116;8.424;2023-09-19T10:03:33;3.15;;;1.50;;
22289;SDS011;11313;50.116;8.424;2023-09-19T10:06:03;3.55;;;2.00;;
22289;SDS011;11313;50.116;8.424;2023-09-19T10:08:57;4.07;;;2.13;;
22289;SDS011;11313;50.116;8.424;2023-09-19T10:11:43;3.22;;;1.92;;
22289;SDS011;11313;50.116;8.424;2023-09-19T10:14:10;3.13;;;1.63;;
22289;SDS011;11313;50.116;8.424;2023-09-19T10:16:39;2.00;;;1.70;;
22289;SDS011;11313;50.116;8.424;2023-09-19T10:19:10;2.78;;;1.50;;
22289;SDS011;11313;50.116;8.424;2023-09-19T10:21:39;3.15;;;1.70;;
22289;SDS011;11313;50.116;8.424;2023-09-19T10:24:05;2.83;;;1.70;;
22289;SDS011;11313;50.116;8.424;2023-09-19T10:26:34;3.45;;;1.50;;
22289;SDS011;11313;50.116;8.424;2023-09-19T10:29:01;3.08;;;1.70;;
22289;SDS011;11313;50.116;8.424;2023-09-19T10:31:28;2.28;;;1.63;;
22289;SDS011;11313;50.116;8.424;2023-09-19T10:33:59;2.75;;;1.63;;
22289;SDS011;11313;50.116;8.424;2023-09-19T10:36:29;3.78;;;1.70;;
22289;SDS011;11313;50.116;8.424;2023-09-19T10:38:59;2.80;;;1.70;;
22289;SDS011;11313;50.116;8.424;2023-09-19T10:41:29;4.43;;;1.90;;
22289;SDS011;11313;50.116;8.424;2023-09-19T10:43:59;4.87;;;1.60;;
22289;SDS011;11313;50.116;8.424;2023-09-19T10:46:28;4.60;;;1.73;;
22289;SDS011;11313;50.116;8.424;2023-09-19T10:48:53;2.60;;;1.70;;
22289;SDS011;11313;50.116;8.424;2023-09-19T10:51:25;4.75;;;1.75;;
22289;SDS011;11313;50.116;8.424;2023-09-19T10:53:58;4.25;;;1.88;;
22289;SDS011;11313;50.116;8.424;2023-09-19T10:56:32;4.45;;;2.00;;
22289;SDS011;11313;50.116;8.424;2023-09-19T10:59:08;4.35;;;2.08;;
22289;SDS011;11313;50.116;8.424;2023-09-19T11:01:42;5.70;;;2.20;;
22289;SDS011;11313;50.116;8.424;2023-09-19T11:04:21;5.30;;;2.10;;
22289;SDS011;11313;50.116;8.424;2023-09-19T11:07:10;4.35;;;1.80;;
22289;SDS011;11313;50.116;8.424;2023-09-19T11:15:06;5.70;;;2.10;;
22289;SDS011;11313;50.116;8.424;2023-09-19T11:17:34;6.68;;;2.00;;
22289;SDS011;11313;50.116;8.424;2023-09-19T11:30:47;4.13;;;1.80;;
22289;SDS011;11313;50.116;8.424;2023-09-19T11:33:20;5.22;;;2.20;;
22289;SDS011;11313;50.116;8.424;2023-09-19T11:36:09;3.70;;;1.90;;
22289;SDS011;11313;50.116;8.424;2023-09-19T11:46:26;5.85;;;2.05;;
22289;SDS011;11313;50.116;8.424;2023-09-19T11:48:53;4.95;;;2.25;;
22289;SDS011;11313;50.116;8.424;2023-09-19T11:51:19;6.53;;;2.00;;
22289;SDS011;11313;50.116;8.424;2023-09-19T11:53:54;5.30;;;2.22;;
22289;SDS011;11313;50.116;8.424;2023-09-19T11:56:26;6.55;;;2.20;;
22289;SDS011;11313;50.116;8.424;2023-09-19T11:58:55;5.40;;;2.00;;
22289;SDS011;11313;50.116;8.424;2023-09-19T12:01:23;5.82;;;2.03;;
22289;SDS011;11313;50.116;8.424;2023-09-19T12:03:57;5.50;;;1.92;;
22289;SDS011;11313;50.116;8.424;2023-09-19T12:06:24;6.70;;;2.22;;
22289;SDS011;11313;50.116;8.424;2023-09-19T12:08:51;4.85;;;2.05;;
22289;SDS011;11313;50.116;8.424;2023-09-19T12:11:19;4.15;;;1.83;;
22289;SDS011;11313;50.116;8.424;2023-09-19T12:13:46;5.05;;;2.28;;
22289;SDS011;11313;50.116;8.424;2023-09-19T12:18:44;5.60;;;1.98;;
22289;SDS011;11313;50.116;8.424;2023-09-19T12:21:24;4.88;;;1.75;;
22289;SDS011;11313;50.116;8.424;2023-09-19T12:26:42;5.97;;;1.92;;
22289;SDS011;11313;50.116;8.424;2023-09-19T12:31:51;4.45;;;2.03;;
22289;SDS011;11313;50.116;8.424;2023-09-19T12:34:23;5.65;;;1.80;;
22289;SDS011;11313;50.116;8.424;2023-09-19T12:39:45;3.03;;;1.63;;
22289;SDS011;11313;50.116;8.424;2023-09-19T12:44:46;5.20;;;1.70;;
22289;SDS011;11313;50.116;8.424;2023-09-19T12:47:14;3.40;;;1.98;;
22289;SDS011;11313;50.116;8.424;2023-09-19T12:52:51;4.70;;;1.80;;
22289;SDS011;11313;50.116;8.424;2023-09-19T13:00:39;3.83;;;2.00;;
22289;SDS011;11313;50.116;8.424;2023-09-19T13:05:57;4.72;;;2.10;;
22289;SDS011;11313;50.116;8.424;2023-09-19T13:08:29;4.15;;;1.95;;
22289;SDS011;11313;50.116;8.424;2023-09-19T13:13:41;4.80;;;1.92;;
22289;SDS011;11313;50.116;8.424;2023-09-19T13:16:10;4.07;;;2.00;;
22289;SDS011;11313;50.116;8.424;2023-09-19T13:18:42;3.37;;;1.87;;
22289;SDS011;11313;50.116;8.424;2023-09-19T13:21:10;5.00;;;1.90;;
22289;SDS011;11313;50.116;8.424;2023-09-19T13:23:52;7.53;;;2.10;;
22289;SDS011;11313;50.116;8.424;2023-09-19T13:26:23;5.22;;;1.88;;
22289;SDS011;11313;50.116;8.424;2023-09-19T13:28:53;4.78;;;1.92;;
22289;SDS011;11313;50.116;8.424;2023-09-19T13:31:19;3.97;;;1.60;;
22289;SDS011;11313;50.116;8.424;2023-09-19T13:33:45;2.95;;;1.52;;
22289;SDS011;11313;50.116;8.424;2023-09-19T13:36:12;4.38;;;1.70;;
22289;SDS011;11313;50.116;8.424;2023-09-19T13:38:39;3.83;;;1.70;;
22289;SDS011;11313;50.116;8.424;2023-09-19T13:41:07;4.65;;;1.80;;
22289;SDS011;11313;50.116;8.424;2023-09-19T13:43:34;4.13;;;1.90;;
22289;SDS011;11313;50.116;8.424;2023-09-19T13:46:00;4.68;;;1.65;;
22289;SDS011;11313;50.116;8.424;2023-09-19T13:48:27;4.88;;;1.80;;
22289;SDS011;11313;50.116;8.424;2023-09-19T13:50:54;3.50;;;1.73;;
22289;SDS011;11313;50.116;8.424;2023-09-19T13:53:20;3.97;;;1.75;;
22289;SDS011;11313;50.116;8.424;2023-09-19T13:55:46;3.70;;;1.52;;
22289;SDS011;11313;50.116;8.424;2023-09-19T13:58:13;3.38;;;1.90;;
22289;SDS011;11313;50.116;8.424;2023-09-19T14:00:39;6.53;;;1.95;;
22289;SDS011;11313;50.116;8.424;2023-09-19T14:03:04;5.25;;;1.90;;
22289;SDS011;11313;50.116;8.424;2023-09-19T14:05:30;2.60;;;1.60;;
22289;SDS011;11313;50.116;8.424;2023-09-19T14:07:56;4.13;;;1.80;;
22289;SDS011;11313;50.116;8.424;2023-09-19T14:10:24;3.85;;;1.65;;
22289;SDS011;11313;50.116;8.424;2023-09-19T14:12:50;4.63;;;1.70;;
22289;SDS011;11313;50.116;8.424;2023-09-19T14:15:15;5.00;;;1.65;;
22289;SDS011;11313;50.116;8.424;2023-09-19T14:17:41;3.92;;;1.67;;
22289;SDS011;11313;50.116;8.424;2023-09-19T14:20:12;4.88;;;2.03;;
22289;SDS011;11313;50.116;8.424;2023-09-19T14:22:39;4.43;;;1.60;;
22289;SDS011;11313;50.116;8.424;2023-09-19T14:25:04;7.28;;;2.03;;
22289;SDS011;11313;50.116;8.424;2023-09-19T14:27:30;3.67;;;1.60;;
22289;SDS011;11313;50.116;8.424;2023-09-19T14:29:56;3.30;;;1.58;;
22289;SDS011;11313;50.116;8.424;2023-09-19T14:32:22;2.63;;;1.60;;
22289;SDS011;11313;50.116;8.424;2023-09-19T14:34:48;3.90;;;1.80;;
22289;SDS011;11313;50.116;8.424;2023-09-19T14:37:13;3.08;;;1.40;;
22289;SDS011;11313;50.116;8.424;2023-09-19T14:39:41;3.85;;;1.73;;
22289;SDS011;11313;50.116;8.424;2023-09-19T14:42:09;4.20;;;1.88;;
22289;SDS011;11313;50.116;8.424;2023-09-19T14:44:35;3.72;;;1.63;;
22289;SDS011;11313;50.116;8.424;2023-09-19T14:47:02;3.15;;;1.75;;
22289;SDS011;11313;50.116;8.424;2023-09-19T14:49:32;4.57;;;1.73;;
22289;SDS011;11313;50.116;8.424;2023-09-19T14:51:58;2.88;;;1.63;;
22289;SDS011;11313;50.116;8.424;2023-09-19T14:54:24;4.28;;;1.50;;
22289;SDS011;11313;50.116;8.424;2023-09-19T14:56:49;3.35;;;1.80;;
22289;SDS011;11313;50.116;8.424;2023-09-19T14:59:19;3.05;;;1.60;;
22289;SDS011;11313;50.116;8.424;2023-09-19T15:01:45;5.25;;;1.55;;
22289;SDS011;11313;50.116;8.424;2023-09-19T15:04:10;3.53;;;1.50;;
22289;SDS011;11313;50.116;8.424;2023-09-19T15:06:36;3.47;;;1.40;;
22289;SDS011;11313;50.116;8.424;2023-09-19T15:09:02;3.60;;;1.40;;
22289;SDS011;11313;50.116;8.424;2023-09-19T15:11:29;2.65;;;1.40;;
22289;SDS011;11313;50.116;8.424;2023-09-19T15:13:55;2.58;;;1.40;;
22289;SDS011;11313;50.116;8.424;2023-09-19T15:16:21;3.17;;;1.52;;
22289;SDS011;11313;50.116;8.424;2023-09-19T15:18:47;3.28;;;1.60;;
22289;SDS011;11313;50.116;8.424;2023-09-19T15:21:13;2.30;;;1.40;;
22289;SDS011;11313;50.116;8.424;2023-09-19T15:23:40;2.45;;;1.45;;
22289;SDS011;11313;50.116;8.424;2023-09-19T15:26:07;3.42;;;1.73;;
22289;SDS011;11313;50.116;8.424;2023-09-19T15:28:33;3.22;;;1.65;;
22289;SDS011;11313;50.116;8.424;2023-09-19T15:31:06;2.78;;;1.48;;
22289;SDS011;11313;50.116;8.424;2023-09-19T15:33:33;4.68;;;1.95;;
22289;SDS011;11313;50.116;8.424;2023-09-19T15:36:00;3.70;;;1.50;;
22289;SDS011;11313;50.116;8.424;2023-09-19T15:38:29;2.25;;;1.60;;
22289;SDS011;11313;50.116;8.424;2023-09-19T15:40:56;2.70;;;1.33;;
22289;SDS011;11313;50.116;8.424;2023-09-19T15:43:22;4.05;;;1.42;;
22289;SDS011;11313;50.116;8.424;2023-09-19T15:45:49;2.90;;;1.30;;
22289;SDS011;11313;50.116;8.424;2023-09-19T15:48:14;3.33;;;1.50;;
22289;SDS011;11313;50.116;8.424;2023-09-19T15:50:41;2.92;;;1.33;;
22289;SDS011;11313;50.116;8.424;2023-09-19T15:53:07;3.03;;;1.55;;
22289;SDS011;11313;50.116;8.424;2023-09-19T15:55:40;2.85;;;1.42;;
22289;SDS011;11313;50.116;8.424;2023-09-19T15:58:06;3.28;;;1.33;;
22289;SDS011;11313;50.116;8.424;2023-09-19T16:00:32;4.18;;;1.50;;
22289;SDS011;11313;50.116;8.424;2023-09-19T16:03:01;3.50;;;1.42;;
22289;SDS011;11313;50.116;8.424;2023-09-19T16:05:27;3.17;;;1.30;;
22289;SDS011;11313;50.116;8.424;2023-09-19T16:07:53;2.13;;;1.50;;
22289;SDS011;11313;50.116;8.424;2023-09-19T16:10:19;3.95;;;1.33;;